createdAt,value
2023-09-19T00:02:00.927Z,69.31
2023-09-19T00:05:04.790Z,69.59
2023-09-19T00:08:07.062Z,69.89
2023-09-19T00:11:12.043Z,69.82
2023-09-19T00:14:15.874Z,69.93
2023-09-19T00:17:18.081Z,69.65
2023-09-19T00:20:20.370Z,69.47
2023-09-19T00:23:22.809Z,69.51
2023-09-19T00:26:25.095Z,69.58
2023-09-19T00:29:30.374Z,69.85
2023-09-19T00:32:32.516Z,69.89
2023-09-19T00:35:35.053Z,69.51
2023-09-19T00:38:37.165Z,69.72
2023-09-19T00:41:39.498Z,69.87
2023-09-19T00:44:41.976Z,70.36
2023-09-19T00:47:47.256Z,70.42
2023-09-19T00:50:50.578Z,70.18
2023-09-19T00:53:54.148Z,70.04
2023-09-19T00:56:56.215Z,70.05
2023-09-19T00:59:58.711Z,70.28
2023-09-19T01:03:04.542Z,70.16
2023-09-19T01:06:08.895Z,70.58
2023-09-19T01:09:11.132Z,70.67
2023-09-19T01:12:19.652Z,70.37
2023-09-19T01:15:43.892Z,70.34
2023-09-19T01:19:21.330Z,70.53
2023-09-19T01:22:47.963Z,70.47
2023-09-19T01:25:50.366Z,70.38
2023-09-19T01:29:30.995Z,70.55
2023-09-19T01:32:34.058Z,70.35
2023-09-19T01:35:40.258Z,70.29
2023-09-19T01:38:42.372Z,70.34
2023-09-19T01:41:57.602Z,70.31
2023-09-19T01:45:24.259Z,70.29
2023-09-19T01:49:05.052Z,70.28
2023-09-19T01:52:09.929Z,70.36
2023-09-19T01:55:16.114Z,70.23
2023-09-19T01:58:44.381Z,70.52
2023-09-19T02:01:47.342Z,70.47
2023-09-19T02:04:51.714Z,70.29
2023-09-19T02:07:55.054Z,70.43
2023-09-19T02:10:57.184Z,70.49
2023-09-19T02:14:00.640Z,70.26
2023-09-19T02:17:10.847Z,70.35
2023-09-19T02:20:14.111Z,70.84
2023-09-19T02:23:16.963Z,70.29
2023-09-19T02:26:21.833Z,70.66
2023-09-19T02:29:24.167Z,70.51
2023-09-19T02:32:26.234Z,70.73
2023-09-19T02:35:29.400Z,70.57
2023-09-19T02:38:31.545Z,71.12
2023-09-19T02:41:34.246Z,70.75
2023-09-19T02:44:36.705Z,70.72
2023-09-19T02:47:38.857Z,70.79
2023-09-19T02:50:41.454Z,70.80
2023-09-19T02:53:43.630Z,70.76
2023-09-19T02:56:45.983Z,70.65
2023-09-19T02:59:48.672Z,70.63
2023-09-19T03:02:55.499Z,70.13
2023-09-19T03:05:57.712Z,70.13
2023-09-19T03:09:01.293Z,70.19
2023-09-19T03:12:05.327Z,70.46
2023-09-19T03:15:09.742Z,71.04
2023-09-19T03:18:12.592Z,70.38
2023-09-19T03:21:16.847Z,71.00
2023-09-19T03:24:19.218Z,70.35
2023-09-19T03:27:21.980Z,70.37
2023-09-19T03:30:24.231Z,70.43
2023-09-19T03:33:26.748Z,70.42
2023-09-19T03:36:30.665Z,70.84
2023-09-19T03:39:32.919Z,71.32
2023-09-19T03:42:37.330Z,70.72
2023-09-19T03:45:39.775Z,70.84
2023-09-19T03:48:42.607Z,70.96
2023-09-19T03:51:45.635Z,71.21
2023-09-19T03:54:47.633Z,71.00
2023-09-19T03:57:51.353Z,70.69
2023-09-19T04:00:59.361Z,70.71
2023-09-19T04:04:09.482Z,70.40
2023-09-19T04:07:13.119Z,70.28
2023-09-19T04:10:16.113Z,70.98
2023-09-19T04:13:18.348Z,70.88
2023-09-19T04:16:21.076Z,71.02
2023-09-19T04:19:23.283Z,70.65
2023-09-19T04:22:25.638Z,70.44
2023-09-19T04:25:29.126Z,71.15
2023-09-19T04:28:32.313Z,70.84
2023-09-19T04:31:34.589Z,71.29
2023-09-19T04:34:36.881Z,70.52
2023-09-19T04:37:45.005Z,70.91
2023-09-19T04:40:48.069Z,71.17
2023-09-19T04:43:52.151Z,70.95
2023-09-19T04:46:54.556Z,71.23
2023-09-19T04:49:58.173Z,70.88
2023-09-19T04:53:01.693Z,71.43
2023-09-19T04:56:04.956Z,71.16
2023-09-19T04:59:07.509Z,71.29
2023-09-19T05:02:09.768Z,71.32
2023-09-19T05:05:13.221Z,70.97
2023-09-19T05:08:16.185Z,71.19
2023-09-19T05:11:23.187Z,71.58
2023-09-19T05:14:26.056Z,71.11
2023-09-19T05:17:28.466Z,71.47
2023-09-19T05:20:31.545Z,71.26
2023-09-19T05:23:33.938Z,71.43
2023-09-19T05:26:35.986Z,71.11
2023-09-19T05:29:39.014Z,71.36
2023-09-19T05:32:41.108Z,70.49
2023-09-19T05:35:43.327Z,71.57
2023-09-19T05:38:45.829Z,70.97
2023-09-19T05:41:48.710Z,71.33
2023-09-19T05:44:50.867Z,71.20
2023-09-19T05:47:58.315Z,71.16
2023-09-19T05:51:02.714Z,71.04
2023-09-19T05:54:06.462Z,71.00
2023-09-19T05:57:08.530Z,71.08
2023-09-19T06:00:12.480Z,70.68
2023-09-19T06:03:15.688Z,71.54
2023-09-19T06:06:17.894Z,70.50
2023-09-19T06:09:22.123Z,67.47
2023-09-19T06:12:26.214Z,67.24
2023-09-19T06:15:28.292Z,65.96
2023-09-19T06:18:30.875Z,68.19
2023-09-19T06:21:33.662Z,68.17
2023-09-19T06:24:36.099Z,68.59
2023-09-19T06:27:44.678Z,68.11
2023-09-19T06:30:50.144Z,68.40
2023-09-19T06:33:53.433Z,68.52
2023-09-19T06:36:59.385Z,69.28
2023-09-19T06:40:04.545Z,69.42
2023-09-19T06:43:08.438Z,68.73
2023-09-19T06:46:11.467Z,68.83
2023-09-19T06:49:17.673Z,67.73
2023-09-19T06:52:20.903Z,68.14
2023-09-19T06:55:26.603Z,67.28
2023-09-19T06:58:29.055Z,67.12
2023-09-19T07:01:33.162Z,66.92
2023-09-19T07:04:35.445Z,66.01
2023-09-19T07:07:37.813Z,66.42
2023-09-19T07:10:42.054Z,65.62
2023-09-19T07:13:45.461Z,64.66
2023-09-19T07:16:49.004Z,65.72
2023-09-19T07:19:52.290Z,64.40
2023-09-19T07:22:56.104Z,64.46
2023-09-19T07:26:00.211Z,64.90
2023-09-19T07:29:05.951Z,64.63
2023-09-19T07:32:09.603Z,64.21
2023-09-19T07:35:13.332Z,63.10
2023-09-19T07:38:15.659Z,63.44
2023-09-19T07:41:17.708Z,63.08
2023-09-19T07:44:20.461Z,63.17
2023-09-19T07:47:22.688Z,62.79
2023-09-19T07:50:24.999Z,62.60
2023-09-19T07:53:27.164Z,62.68
2023-09-19T07:56:29.381Z,61.61
2023-09-19T07:59:31.474Z,60.92
2023-09-19T08:02:40.568Z,62.42
2023-09-19T08:05:44.805Z,62.92
2023-09-19T08:08:47.246Z,62.24
2023-09-19T08:11:49.408Z,63.04
2023-09-19T08:14:52.698Z,63.75
2023-09-19T08:17:55.056Z,63.05
2023-09-19T08:21:00.177Z,60.26
2023-09-19T08:24:05.307Z,62.19
2023-09-19T08:27:10.989Z,63.18
2023-09-19T08:30:13.521Z,60.24
2023-09-19T08:33:16.610Z,63.00
2023-09-19T08:36:18.884Z,61.85
2023-09-19T08:39:21.086Z,62.09
2023-09-19T08:42:26.532Z,61.74
2023-09-19T08:45:29.655Z,61.46
2023-09-19T08:48:33.158Z,61.37
2023-09-19T08:51:49.927Z,60.90
2023-09-19T08:55:00.271Z,60.47
2023-09-19T08:58:08.181Z,60.01
2023-09-19T09:01:13.940Z,61.72
2023-09-19T09:04:16.501Z,60.40
2023-09-19T09:07:20.500Z,60.57
2023-09-19T09:10:26.049Z,61.19
2023-09-19T09:13:29.101Z,61.29
2023-09-19T09:16:32.325Z,60.14
2023-09-19T09:19:34.725Z,60.43
2023-09-19T09:22:37.906Z,59.44
2023-09-19T09:25:57.954Z,58.12
2023-09-19T09:29:00.447Z,57.73
2023-09-19T09:32:21.901Z,57.57
2023-09-19T09:35:24.569Z,57.64
2023-09-19T09:38:49.744Z,58.78
2023-09-19T09:41:52.206Z,58.89
2023-09-19T09:45:16.491Z,59.29
2023-09-19T09:48:33.193Z,59.50
2023-09-19T09:51:35.393Z,59.39
2023-09-19T09:54:38.186Z,59.20
2023-09-19T09:57:42.893Z,59.77
2023-09-19T10:01:03.252Z,60.12
2023-09-19T10:04:05.599Z,59.94
2023-09-19T10:07:12.452Z,60.32
2023-09-19T10:10:17.564Z,59.95
2023-09-19T10:13:24.765Z,59.81
2023-09-19T10:16:33.431Z,59.99
2023-09-19T10:19:46.345Z,59.72
2023-09-19T10:22:58.864Z,59.86
2023-09-19T10:26:03.423Z,58.12
2023-09-19T10:29:09.080Z,58.89
2023-09-19T10:32:20.651Z,59.60
2023-09-19T10:35:25.226Z,58.95
2023-09-19T10:38:30.329Z,59.65
2023-09-19T10:41:35.808Z,58.76
2023-09-19T10:44:41.868Z,59.45
2023-09-19T10:47:44.383Z,57.92
2023-09-19T10:51:07.423Z,58.62
2023-09-19T10:54:14.981Z,59.22
2023-09-19T10:57:23.823Z,58.56
2023-09-19T11:00:28.502Z,58.98
2023-09-19T11:03:34.770Z,58.37
2023-09-19T11:06:37.767Z,58.13
2023-09-19T11:09:49.663Z,58.84
2023-09-19T11:12:52.020Z,59.01
2023-09-19T11:16:00.315Z,58.52
2023-09-19T11:19:02.506Z,58.93
2023-09-19T11:22:04.731Z,58.41
2023-09-19T11:25:32.809Z,58.40
2023-09-19T11:28:38.582Z,58.65
2023-09-19T11:31:46.583Z,58.39
2023-09-19T11:34:51.973Z,58.29
2023-09-19T11:37:54.251Z,58.14
2023-09-19T11:41:28.251Z,57.40
2023-09-19T11:44:35.764Z,57.63
2023-09-19T11:47:40.300Z,58.25
2023-09-19T11:50:45.322Z,57.87
2023-09-19T11:53:53.601Z,57.35
2023-09-19T11:56:56.288Z,57.20
2023-09-19T11:59:59.816Z,57.58
2023-09-19T12:03:10.844Z,58.12
2023-09-19T12:06:16.766Z,57.83
2023-09-19T12:09:21.693Z,57.77
2023-09-19T12:12:29.195Z,58.23
2023-09-19T12:15:39.683Z,58.25
2023-09-19T12:18:45.250Z,56.98
2023-09-19T12:21:59.286Z,57.67
2023-09-19T12:25:08.458Z,56.95
2023-09-19T12:28:11.005Z,57.34
2023-09-19T12:31:13.866Z,56.77
2023-09-19T12:34:21.610Z,56.75
2023-09-19T12:37:28.744Z,57.02
2023-09-19T12:40:34.597Z,57.42
2023-09-19T12:43:41.366Z,57.54
2023-09-19T12:46:44.898Z,56.98
2023-09-19T12:50:09.098Z,57.73
2023-09-19T12:53:27.021Z,56.98
2023-09-19T12:56:30.420Z,57.62
2023-09-19T12:59:34.001Z,58.25
2023-09-19T13:02:36.182Z,58.85
2023-09-19T13:05:55.674Z,58.79
2023-09-19T13:09:10.810Z,58.44
2023-09-19T13:12:38.825Z,59.06
2023-09-19T13:15:53.668Z,58.23
2023-09-19T13:18:58.989Z,59.16
2023-09-19T13:22:01.230Z,58.87
2023-09-19T13:25:05.234Z,57.99
2023-09-19T13:28:07.334Z,57.57
2023-09-19T13:31:12.150Z,57.54
2023-09-19T13:34:16.966Z,58.72
2023-09-19T13:37:19.526Z,58.75
2023-09-19T13:40:21.837Z,58.49
2023-09-19T13:43:24.120Z,59.61
2023-09-19T13:46:27.847Z,60.23
2023-09-19T13:49:32.145Z,60.06
2023-09-19T13:52:36.888Z,60.27
2023-09-19T13:55:39.303Z,60.52
2023-09-19T13:58:43.756Z,59.72
2023-09-19T14:01:46.035Z,60.56
2023-09-19T14:04:48.468Z,60.33
2023-09-19T14:07:50.834Z,60.49
2023-09-19T14:10:55.446Z,62.02
2023-09-19T14:13:59.562Z,61.12
2023-09-19T14:17:03.003Z,62.98
2023-09-19T14:20:08.591Z,64.44
2023-09-19T14:23:13.471Z,64.64
2023-09-19T14:26:17.325Z,64.29
2023-09-19T14:29:20.959Z,64.11
2023-09-19T14:32:23.342Z,64.67
2023-09-19T14:35:25.720Z,63.63
2023-09-19T14:38:27.865Z,65.01
2023-09-19T14:41:32.658Z,65.79
2023-09-19T14:44:34.811Z,65.47
2023-09-19T14:47:37.154Z,66.64
2023-09-19T14:50:42.129Z,66.51
2023-09-19T14:53:44.863Z,66.99
2023-09-19T14:56:47.404Z,66.13
2023-09-19T14:59:49.593Z,66.73
2023-09-19T15:02:52.549Z,65.12
2023-09-19T15:06:06.832Z,65.21
2023-09-19T15:09:10.741Z,64.89
2023-09-19T15:12:15.426Z,65.23
2023-09-19T15:15:17.576Z,64.45
2023-09-19T15:18:19.833Z,65.42
2023-09-19T15:21:22.101Z,65.06
2023-09-19T15:24:24.356Z,64.19
2023-09-19T15:27:26.816Z,64.42
2023-09-19T15:30:29.040Z,64.08
2023-09-19T15:33:33.091Z,64.66
2023-09-19T15:36:35.776Z,64.25
2023-09-19T15:39:38.617Z,64.11
2023-09-19T15:42:40.772Z,64.34
2023-09-19T15:45:43.867Z,65.09
2023-09-19T15:48:47.352Z,65.31
2023-09-19T15:51:50.588Z,65.60
2023-09-19T15:54:53.114Z,66.21
2023-09-19T15:57:56.399Z,66.79
2023-09-19T16:00:58.500Z,67.53
2023-09-19T16:04:00.545Z,68.26
2023-09-19T16:07:03.907Z,68.40
2023-09-19T16:10:06.675Z,69.95
2023-09-19T16:13:09.067Z,70.80
2023-09-19T16:16:16.248Z,71.04
2023-09-19T16:19:18.361Z,71.95
2023-09-19T16:22:20.700Z,73.10
2023-09-19T16:25:25.525Z,73.45
2023-09-19T16:28:28.818Z,74.46
2023-09-19T16:31:36.490Z,74.78
2023-09-19T16:34:38.974Z,75.52
2023-09-19T16:37:41.432Z,75.93
2023-09-19T16:40:56.207Z,76.57
2023-09-19T16:43:59.332Z,77.17
2023-09-19T16:47:04.298Z,77.84
2023-09-19T16:50:07.254Z,78.34
2023-09-19T16:53:11.576Z,78.31
2023-09-19T16:56:16.371Z,78.95
2023-09-19T16:59:21.192Z,79.01
2023-09-19T17:02:24.529Z,79.49
2023-09-19T17:05:28.347Z,79.22
2023-09-19T17:08:31.376Z,79.05
2023-09-19T17:11:35.246Z,79.70
2023-09-19T17:14:37.505Z,79.76
2023-09-19T17:17:40.011Z,80.11
2023-09-19T17:20:43.210Z,79.40
2023-09-19T17:23:45.304Z,79.95
2023-09-19T17:26:47.994Z,80.00
2023-09-19T17:29:50.124Z,80.03
2023-09-19T17:32:52.307Z,80.85
2023-09-19T17:36:11.485Z,80.91
2023-09-19T17:39:16.920Z,81.11
2023-09-19T17:42:19.454Z,81.31
2023-09-19T17:45:22.610Z,81.72
2023-09-19T17:48:27.379Z,82.12
2023-09-19T17:51:31.764Z,82.45
2023-09-19T17:54:34.348Z,82.65
2023-09-19T17:57:39.279Z,82.56
2023-09-19T18:00:46.251Z,83.16
2023-09-19T18:03:57.761Z,83.44
2023-09-19T18:07:00.766Z,83.40
2023-09-19T18:10:04.215Z,83.37
2023-09-19T18:13:07.455Z,83.56
2023-09-19T18:16:09.937Z,83.46
2023-09-19T18:19:13.874Z,83.62
2023-09-19T18:22:16.174Z,83.78
2023-09-19T18:25:20.751Z,83.73
2023-09-19T18:28:22.845Z,83.54
2023-09-19T18:31:26.636Z,83.88
2023-09-19T18:34:29.078Z,83.23
2023-09-19T18:37:32.958Z,83.22
2023-09-19T18:40:38.230Z,83.23
2023-09-19T18:43:40.614Z,83.71
2023-09-19T18:46:46.168Z,83.51
2023-09-19T18:49:48.444Z,83.37
2023-09-19T18:52:52.473Z,83.06
2023-09-19T18:56:11.829Z,83.24
2023-09-19T18:59:15.829Z,83.03
2023-09-19T19:02:18.543Z,83.14
2023-09-19T19:05:22.412Z,82.46
2023-09-19T19:08:25.212Z,82.57
2023-09-19T19:11:31.470Z,82.27
2023-09-19T19:14:33.905Z,82.45
2023-09-19T19:17:36.784Z,82.46
2023-09-19T19:20:39.049Z,82.57
2023-09-19T19:23:41.852Z,82.51
2023-09-19T19:26:44.799Z,82.07
2023-09-19T19:29:48.428Z,81.99
2023-09-19T19:32:50.902Z,81.24
2023-09-19T19:35:53.141Z,80.83
2023-09-19T19:38:56.702Z,80.56
2023-09-19T19:41:59.933Z,80.58
2023-09-19T19:45:02.962Z,79.94
2023-09-19T19:48:05.427Z,79.51
2023-09-19T19:51:08.731Z,79.22
2023-09-19T19:54:10.866Z,78.23
2023-09-19T19:57:15.029Z,78.08
2023-09-19T20:00:21.746Z,77.27
2023-09-19T20:03:26.133Z,77.09
2023-09-19T20:06:28.647Z,76.25
2023-09-19T20:09:31.021Z,75.96
2023-09-19T20:12:33.533Z,75.26
2023-09-19T20:15:36.484Z,75.11
2023-09-19T20:18:40.604Z,74.23
2023-09-19T20:21:42.886Z,74.83
2023-09-19T20:24:45.218Z,74.32
2023-09-19T20:27:48.623Z,73.86
2023-09-19T20:30:50.830Z,73.78
2023-09-19T20:33:52.885Z,73.59
2023-09-19T20:36:55.117Z,73.16
2023-09-19T20:39:57.721Z,73.24
2023-09-19T20:42:59.882Z,74.31
2023-09-19T20:46:05.654Z,74.77
2023-09-19T20:49:07.880Z,74.44
2023-09-19T20:52:10.132Z,74.42
2023-09-19T20:55:12.412Z,74.20
2023-09-19T20:58:14.637Z,74.00
2023-09-19T21:01:17.083Z,73.91
2023-09-19T21:04:19.252Z,74.10
2023-09-19T21:07:21.743Z,73.99
2023-09-19T21:10:23.825Z,73.95
2023-09-19T21:13:26.168Z,74.07
2023-09-19T21:16:29.020Z,73.96
2023-09-19T21:19:32.117Z,73.65
2023-09-19T21:22:34.183Z,73.88
2023-09-19T21:25:36.272Z,73.82
2023-09-19T21:28:38.784Z,73.92
2023-09-19T21:31:41.812Z,73.69
2023-09-19T21:34:43.959Z,73.67
2023-09-19T21:37:46.695Z,73.72
2023-09-19T21:40:48.914Z,73.72
2023-09-19T21:43:51.991Z,73.41
2023-09-19T21:46:57.364Z,73.27
2023-09-19T21:49:59.556Z,73.15
2023-09-19T21:53:01.947Z,73.13
2023-09-19T21:56:06.311Z,72.70
2023-09-19T21:59:08.776Z,72.98
2023-09-19T22:02:12.444Z,72.74
2023-09-19T22:05:14.698Z,72.85
2023-09-19T22:08:16.838Z,72.93
2023-09-19T22:11:21.671Z,72.98
2023-09-19T22:14:30.572Z,73.07
2023-09-19T22:17:33.231Z,72.95
2023-09-19T22:20:38.366Z,73.10
2023-09-19T22:23:46.277Z,73.15
2023-09-19T22:26:49.048Z,73.42
2023-09-19T22:29:51.150Z,73.22
2023-09-19T22:32:57.023Z,73.36
2023-09-19T22:36:05.138Z,74.17
2023-09-19T22:39:26.896Z,73.17
2023-09-19T22:42:30.180Z,73.25
2023-09-19T22:45:32.206Z,73.47
2023-09-19T22:48:35.066Z,73.60
2023-09-19T22:51:47.457Z,73.06
2023-09-19T22:54:49.634Z,73.23
2023-09-19T22:57:55.740Z,73.08
2023-09-19T23:01:08.632Z,72.77
2023-09-19T23:04:13.621Z,72.97
2023-09-19T23:07:15.770Z,72.96
2023-09-19T23:10:18.545Z,73.25
2023-09-19T23:13:28.857Z,72.94
2023-09-19T23:16:54.626Z,73.01
2023-09-19T23:19:57.255Z,73.00
2023-09-19T23:22:59.716Z,73.18
2023-09-19T23:26:07.344Z,73.03
2023-09-19T23:29:09.557Z,72.98
2023-09-19T23:32:16.621Z,72.97
2023-09-19T23:35:19.820Z,72.80
2023-09-19T23:38:22.396Z,72.92
2023-09-19T23:41:25.252Z,72.44
2023-09-19T23:44:29.164Z,73.63
2023-09-19T23:47:31.839Z,73.22
2023-09-19T23:50:35.848Z,73.28
2023-09-19T23:53:38.208Z,72.54
2023-09-19T23:56:42.509Z,72.59
2023-09-19T23:59:44.752Z,72.74
